createdAt,value
2022-10-02T00:00:38.747Z,12.07
2022-10-02T00:03:12.568Z,12.07
2022-10-02T00:05:44.486Z,12.06
2022-10-02T00:08:18.140Z,12.04
2022-10-02T00:10:53.347Z,12.03
2022-10-02T00:13:26.906Z,12.02
2022-10-02T00:15:56.159Z,12.00
2022-10-02T00:18:28.866Z,12.01
2022-10-02T00:21:03.989Z,12.00
2022-10-02T00:23:34.648Z,11.99
2022-10-02T00:26:08.895Z,11.96
2022-10-02T00:28:45.433Z,11.95
2022-10-02T00:31:28.542Z,11.94
2022-10-02T00:34:12.988Z,11.93
2022-10-02T00:36:54.160Z,11.91
2022-10-02T00:39:33.530Z,11.90
2022-10-02T00:42:32.755Z,11.91
2022-10-02T00:45:40.126Z,11.91
2022-10-02T00:48:26.379Z,11.90
2022-10-02T00:51:03.434Z,11.89
2022-10-02T00:53:40.437Z,11.87
2022-10-02T00:56:19.271Z,11.87
2022-10-02T00:58:59.981Z,11.87
2022-10-02T01:01:35.687Z,11.88
2022-10-02T01:04:09.403Z,11.89
2022-10-02T01:06:37.945Z,11.90
2022-10-02T01:09:06.486Z,11.90
2022-10-02T01:11:34.971Z,11.91
2022-10-02T01:14:03.861Z,11.91
2022-10-02T01:16:33.751Z,11.90
2022-10-02T01:19:02.930Z,11.89
2022-10-02T01:21:36.965Z,11.87
2022-10-02T01:24:13.272Z,11.86
2022-10-02T01:26:42.108Z,11.85
2022-10-02T01:29:11.376Z,11.86
2022-10-02T01:31:42.018Z,11.87
2022-10-02T01:34:10.490Z,11.87
2022-10-02T01:36:39.077Z,11.86
2022-10-02T01:39:07.801Z,11.86
2022-10-02T01:41:41.196Z,11.87
2022-10-02T01:44:10.386Z,11.87
2022-10-02T01:46:46.688Z,11.86
2022-10-02T01:49:34.352Z,11.88
2022-10-02T01:52:12.861Z,11.88
2022-10-02T01:55:00.684Z,11.88
2022-10-02T01:57:37.869Z,11.85
2022-10-02T02:00:11.180Z,11.84
2022-10-02T02:02:53.674Z,11.82
2022-10-02T02:05:42.304Z,11.80
2022-10-02T02:08:16.614Z,11.76
2022-10-02T02:10:53.043Z,11.74
2022-10-02T02:13:26.373Z,11.74
2022-10-02T02:16:01.164Z,11.72
2022-10-02T02:18:34.595Z,11.71
2022-10-02T02:21:08.904Z,11.69
2022-10-02T02:23:39.503Z,11.66
2022-10-02T02:26:11.801Z,11.65
2022-10-02T02:28:45.305Z,11.65
2022-10-02T02:31:18.563Z,11.64
2022-10-02T02:33:50.755Z,11.63
2022-10-02T02:36:23.923Z,11.61
2022-10-02T02:38:58.789Z,11.60
2022-10-02T02:41:31.387Z,11.57
2022-10-02T02:44:02.149Z,11.52
2022-10-02T02:46:55.070Z,11.50
2022-10-02T02:49:26.886Z,11.47
2022-10-02T02:51:59.524Z,11.44
2022-10-02T02:54:35.930Z,11.41
2022-10-02T02:57:07.288Z,11.38
2022-10-02T02:59:38.040Z,11.37
2022-10-02T03:02:06.292Z,11.35
2022-10-02T03:04:34.729Z,11.35
2022-10-02T03:07:04.759Z,11.34
2022-10-02T03:09:34.608Z,11.30
2022-10-02T03:12:16.315Z,11.28
2022-10-02T03:15:02.291Z,11.26
2022-10-02T03:17:44.094Z,11.26
2022-10-02T03:20:19.318Z,11.26
2022-10-02T03:22:56.830Z,11.25
2022-10-02T03:25:31.285Z,11.25
2022-10-02T03:28:04.924Z,11.26
2022-10-02T03:30:34.286Z,11.28
2022-10-02T03:33:04.956Z,11.30
2022-10-02T03:35:33.592Z,11.33
2022-10-02T03:38:11.099Z,11.37
2022-10-02T03:40:39.911Z,11.41
2022-10-02T03:43:09.839Z,11.46
2022-10-02T03:45:53.425Z,11.49
2022-10-02T03:48:21.666Z,11.52
2022-10-02T03:50:50.667Z,11.55
2022-10-02T03:53:21.134Z,11.58
2022-10-02T03:55:55.277Z,11.62
2022-10-02T03:58:25.156Z,11.66
2022-10-02T04:00:58.760Z,11.69
2022-10-02T04:03:30.877Z,11.71
2022-10-02T04:06:04.258Z,11.72
2022-10-02T04:08:36.934Z,11.74
2022-10-02T04:11:12.114Z,11.75
2022-10-02T04:13:41.480Z,11.76
2022-10-02T04:16:16.156Z,11.78
2022-10-02T04:18:54.201Z,11.79
2022-10-02T04:21:33.757Z,11.81
2022-10-02T04:24:12.873Z,11.83
2022-10-02T04:26:46.005Z,11.86
2022-10-02T04:29:20.995Z,11.87
2022-10-02T04:31:53.722Z,11.87
2022-10-02T04:34:22.009Z,11.88
2022-10-02T04:37:10.892Z,11.88
2022-10-02T04:39:57.592Z,11.89
2022-10-02T04:42:39.965Z,11.90
2022-10-02T04:45:26.872Z,11.91
2022-10-02T04:48:21.830Z,11.90
2022-10-02T04:50:57.051Z,11.90
2022-10-02T04:53:35.201Z,11.89
2022-10-02T04:56:38.212Z,11.88
2022-10-02T04:59:20.779Z,11.86
2022-10-02T05:01:58.724Z,11.86
2022-10-02T05:04:53.907Z,11.86
2022-10-02T05:07:54.047Z,11.86
2022-10-02T05:10:49.035Z,11.88
2022-10-02T05:13:31.711Z,11.92
2022-10-02T05:16:16.102Z,11.95
2022-10-02T05:19:08.596Z,11.98
2022-10-02T05:21:56.985Z,12.00
2022-10-02T05:24:44.075Z,12.03
2022-10-02T05:27:33.101Z,12.04
2022-10-02T05:30:08.404Z,12.04
2022-10-02T05:32:50.100Z,12.04
2022-10-02T05:35:32.037Z,12.05
2022-10-02T05:38:13.698Z,12.07
2022-10-02T05:40:49.882Z,12.09
2022-10-02T05:43:29.872Z,12.11
2022-10-02T05:46:05.970Z,12.13
2022-10-02T05:48:40.834Z,12.16
2022-10-02T05:51:16.481Z,12.17
2022-10-02T05:53:52.652Z,12.18
2022-10-02T05:56:26.651Z,12.20
2022-10-02T05:59:00.558Z,12.21
2022-10-02T06:01:33.139Z,12.21
2022-10-02T06:04:07.806Z,12.21
2022-10-02T06:06:40.114Z,12.22
2022-10-02T06:09:19.561Z,12.24
2022-10-02T06:11:53.096Z,12.25
2022-10-02T06:14:30.502Z,12.26
2022-10-02T06:17:03.602Z,12.30
2022-10-02T06:19:38.665Z,12.32
2022-10-02T06:22:11.869Z,12.36
2022-10-02T06:24:45.252Z,12.39
2022-10-02T06:27:22.945Z,12.39
2022-10-02T06:29:59.183Z,12.43
2022-10-02T06:32:36.935Z,12.45
2022-10-02T06:35:11.535Z,12.49
2022-10-02T06:37:54.473Z,12.57
2022-10-02T06:40:42.514Z,12.65
2022-10-02T06:43:24.418Z,12.74
2022-10-02T06:46:00.698Z,12.84
2022-10-02T06:48:40.962Z,12.96
2022-10-02T06:51:21.700Z,13.07
2022-10-02T06:54:04.424Z,13.17
2022-10-02T06:56:51.415Z,13.27
2022-10-02T06:59:45.404Z,13.33
2022-10-02T07:02:33.234Z,13.39
2022-10-02T07:05:29.646Z,13.43
2022-10-02T07:08:04.485Z,13.48
2022-10-02T07:10:38.239Z,13.50
2022-10-02T07:13:32.022Z,13.52
2022-10-02T07:16:25.409Z,13.53
2022-10-02T07:19:43.855Z,13.55
2022-10-02T07:22:44.452Z,13.59
2022-10-02T07:25:34.064Z,13.65
2022-10-02T07:28:12.133Z,13.74
2022-10-02T07:30:49.781Z,13.78
2022-10-02T07:33:30.488Z,13.83
2022-10-02T07:36:11.183Z,13.88
2022-10-02T07:39:11.224Z,13.96
2022-10-02T07:42:13.140Z,14.04
2022-10-02T07:45:04.780Z,14.12
2022-10-02T07:47:54.201Z,14.22
2022-10-02T07:50:31.098Z,14.30
2022-10-02T07:53:09.330Z,14.36
2022-10-02T07:55:41.182Z,14.39
2022-10-02T07:58:13.664Z,14.42
2022-10-02T08:00:48.483Z,14.44
2022-10-02T08:03:22.318Z,14.47
2022-10-02T08:05:56.326Z,14.48
2022-10-02T08:08:31.572Z,14.50
2022-10-02T08:11:06.600Z,14.52
2022-10-02T08:13:41.060Z,14.52
2022-10-02T08:16:12.639Z,14.50
2022-10-02T08:18:46.212Z,14.50
2022-10-02T08:21:20.802Z,14.52
2022-10-02T08:23:59.812Z,14.52
2022-10-02T08:26:35.895Z,14.54
2022-10-02T08:29:09.734Z,14.54
2022-10-02T08:31:38.378Z,14.55
2022-10-02T08:34:16.470Z,14.57
2022-10-02T08:37:04.536Z,14.57
2022-10-02T08:40:02.003Z,14.58
2022-10-02T08:43:18.687Z,14.61
2022-10-02T08:46:23.651Z,14.64
2022-10-02T08:49:17.012Z,14.70
2022-10-02T08:52:07.085Z,14.75
2022-10-02T08:55:00.458Z,14.82
2022-10-02T08:57:52.847Z,14.94
2022-10-02T09:00:25.195Z,15.11
2022-10-02T09:03:30.000Z,15.25
2022-10-02T09:06:37.241Z,15.38
2022-10-02T09:09:37.448Z,15.57
2022-10-02T09:12:42.055Z,15.90
2022-10-02T09:15:17.411Z,16.23
2022-10-02T09:18:14.182Z,16.45
2022-10-02T09:21:11.938Z,16.61
2022-10-02T09:24:33.972Z,16.65
2022-10-02T09:27:58.865Z,16.62
2022-10-02T09:30:47.786Z,16.57
2022-10-02T09:33:47.169Z,16.49
2022-10-02T09:36:45.702Z,16.42
2022-10-02T09:40:09.227Z,16.45
2022-10-02T09:43:12.240Z,16.61
2022-10-02T09:46:15.908Z,16.93
2022-10-02T09:49:25.369Z,17.37
2022-10-02T09:52:39.331Z,17.72
2022-10-02T09:55:49.550Z,18.13
2022-10-02T09:59:00.387Z,18.46
2022-10-02T10:02:01.541Z,18.84
2022-10-02T10:05:11.063Z,19.07
2022-10-02T10:08:10.802Z,19.27
2022-10-02T10:11:19.486Z,19.40
2022-10-02T10:14:34.543Z,19.52
2022-10-02T10:17:38.626Z,19.67
2022-10-02T10:20:25.313Z,19.82
2022-10-02T10:23:07.231Z,19.92
2022-10-02T10:26:01.680Z,19.95
2022-10-02T10:28:53.051Z,19.91
2022-10-02T10:32:03.330Z,19.87
2022-10-02T10:35:04.420Z,19.98
2022-10-02T10:38:13.641Z,20.08
2022-10-02T10:41:04.100Z,20.14
2022-10-02T10:44:12.867Z,20.13
2022-10-02T10:47:01.404Z,20.08
2022-10-02T10:50:16.057Z,20.06
2022-10-02T10:53:08.811Z,19.96
2022-10-02T10:56:02.738Z,19.79
2022-10-02T10:58:45.791Z,19.51
2022-10-02T11:01:18.996Z,19.15
2022-10-02T11:04:22.499Z,18.75
2022-10-02T11:07:01.869Z,18.34
2022-10-02T11:10:04.231Z,18.06
2022-10-02T11:13:05.403Z,17.89
2022-10-02T11:16:12.324Z,17.86
2022-10-02T11:19:03.164Z,17.85
2022-10-02T11:21:55.860Z,17.79
2022-10-02T11:25:01.082Z,17.71
2022-10-02T11:27:58.457Z,17.65
2022-10-02T11:30:41.470Z,17.62
2022-10-02T11:33:37.825Z,17.58
2022-10-02T11:36:42.073Z,17.50
2022-10-02T11:39:31.098Z,17.45
2022-10-02T11:42:26.234Z,17.38
2022-10-02T11:45:14.623Z,17.30
2022-10-02T11:48:15.233Z,17.25
2022-10-02T11:50:59.407Z,17.20
2022-10-02T11:54:12.882Z,17.16
2022-10-02T11:57:05.403Z,17.11
2022-10-02T11:59:55.788Z,17.07
2022-10-02T12:02:35.473Z,17.03
2022-10-02T12:05:23.525Z,17.00
2022-10-02T12:08:01.022Z,16.95
2022-10-02T12:10:47.648Z,16.89
2022-10-02T12:13:49.820Z,16.81
2022-10-02T12:16:29.861Z,16.69
2022-10-02T12:19:17.924Z,16.58
2022-10-02T12:22:18.131Z,16.48
2022-10-02T12:25:15.886Z,16.38
2022-10-02T12:28:02.015Z,16.30
2022-10-02T12:30:41.312Z,16.26
2022-10-02T12:33:27.968Z,16.22
2022-10-02T12:36:18.692Z,16.21
2022-10-02T12:39:00.489Z,16.23
2022-10-02T12:41:59.203Z,16.25
2022-10-02T12:45:11.611Z,16.24
2022-10-02T12:48:10.544Z,16.22
2022-10-02T12:51:05.734Z,16.19
2022-10-02T12:54:09.781Z,16.17
2022-10-02T12:57:08.381Z,16.11
2022-10-02T12:59:43.271Z,16.07
2022-10-02T13:03:00.318Z,16.05
2022-10-02T13:05:57.655Z,16.03
2022-10-02T13:08:39.199Z,16.02
2022-10-02T13:11:24.549Z,16.05
2022-10-02T13:14:11.398Z,16.09
2022-10-02T13:17:09.781Z,16.14
2022-10-02T13:19:50.579Z,16.20
2022-10-02T13:22:34.981Z,16.24
2022-10-02T13:25:23.123Z,16.27
2022-10-02T13:28:06.818Z,16.28
2022-10-02T13:30:43.416Z,16.29
2022-10-02T13:33:28.908Z,16.27
2022-10-02T13:36:05.104Z,16.22
2022-10-02T13:39:02.909Z,16.17
2022-10-02T13:41:50.930Z,16.10
2022-10-02T13:44:31.102Z,16.08
2022-10-02T13:47:24.377Z,16.07
2022-10-02T13:50:28.649Z,16.10
2022-10-02T13:53:19.993Z,16.12
2022-10-02T13:55:53.601Z,16.15
2022-10-02T13:58:41.751Z,16.19
2022-10-02T14:01:28.410Z,16.25
2022-10-02T14:04:26.729Z,16.29
2022-10-02T14:07:05.249Z,16.34
2022-10-02T14:09:48.534Z,16.37
2022-10-02T14:12:35.134Z,16.37
2022-10-02T14:15:24.660Z,16.33
2022-10-02T14:18:20.076Z,16.24
2022-10-02T14:20:59.536Z,16.19
2022-10-02T14:23:48.057Z,16.17
2022-10-02T14:26:24.820Z,16.15
2022-10-02T14:29:11.960Z,16.17
2022-10-02T14:32:17.919Z,16.20
2022-10-02T14:35:03.560Z,16.22
2022-10-02T14:38:09.165Z,16.21
2022-10-02T14:40:50.509Z,16.22
2022-10-02T14:44:01.258Z,16.20
2022-10-02T14:46:44.177Z,16.17
2022-10-02T14:49:27.315Z,16.15
2022-10-02T14:52:23.062Z,16.11
2022-10-02T14:55:16.268Z,16.10
2022-10-02T14:58:13.555Z,16.07
2022-10-02T15:00:50.223Z,16.05
2022-10-02T15:03:47.531Z,16.03
2022-10-02T15:06:31.996Z,16.01
2022-10-02T15:09:06.048Z,15.97
2022-10-02T15:12:01.928Z,15.94
2022-10-02T15:14:35.747Z,15.89
2022-10-02T15:17:29.331Z,15.83
2022-10-02T15:20:06.313Z,15.76
2022-10-02T15:22:39.412Z,15.70
2022-10-02T15:25:18.264Z,15.66
2022-10-02T15:28:08.047Z,15.59
2022-10-02T15:30:52.509Z,15.54
2022-10-02T15:33:31.917Z,15.49
2022-10-02T15:36:25.488Z,15.47
2022-10-02T15:39:19.067Z,15.46
2022-10-02T15:42:00.192Z,15.44
2022-10-02T15:45:03.844Z,15.39
2022-10-02T15:47:48.644Z,15.34
2022-10-02T15:50:29.385Z,15.26
2022-10-02T15:53:18.028Z,15.17
2022-10-02T15:55:56.045Z,15.10
2022-10-02T15:58:41.314Z,15.01
2022-10-02T16:01:23.753Z,14.91
2022-10-02T16:04:00.908Z,14.80
2022-10-02T16:06:50.016Z,14.71
2022-10-02T16:09:38.367Z,14.60
2022-10-02T16:12:29.403Z,14.49
2022-10-02T16:15:12.364Z,14.37
2022-10-02T16:18:00.022Z,14.30
2022-10-02T16:20:48.130Z,14.19
2022-10-02T16:23:44.274Z,14.08
2022-10-02T16:26:29.733Z,13.97
2022-10-02T16:29:16.205Z,13.83
2022-10-02T16:31:56.636Z,13.73
2022-10-02T16:34:42.491Z,13.62
2022-10-02T16:37:24.136Z,13.49
2022-10-02T16:39:59.826Z,13.39
2022-10-02T16:42:42.046Z,13.28
2022-10-02T16:45:46.946Z,13.18
2022-10-02T16:48:23.699Z,13.07
2022-10-02T16:51:27.946Z,12.99
2022-10-02T16:54:09.658Z,12.88
2022-10-02T16:56:49.566Z,12.80
2022-10-02T16:59:24.180Z,12.73
2022-10-02T17:02:18.884Z,12.67
2022-10-02T17:05:12.716Z,12.62
2022-10-02T17:07:52.978Z,12.57
2022-10-02T17:10:37.440Z,12.52
2022-10-02T17:13:26.373Z,12.48
2022-10-02T17:15:59.083Z,12.45
2022-10-02T17:18:39.219Z,12.41
2022-10-02T17:21:20.915Z,12.38
2022-10-02T17:24:04.918Z,12.33
2022-10-02T17:26:41.077Z,12.29
2022-10-02T17:29:21.038Z,12.25
2022-10-02T17:31:53.637Z,12.21
2022-10-02T17:34:24.568Z,12.18
2022-10-02T17:37:11.404Z,12.16
2022-10-02T17:39:59.380Z,12.13
2022-10-02T17:42:43.285Z,12.10
2022-10-02T17:45:30.844Z,12.07
2022-10-02T17:48:14.163Z,12.06
2022-10-02T17:51:31.025Z,12.07
2022-10-02T17:54:40.059Z,12.08
2022-10-02T17:57:30.534Z,12.08
2022-10-02T18:00:23.469Z,12.05
2022-10-02T18:03:26.293Z,12.02
2022-10-02T18:06:17.213Z,11.97
2022-10-02T18:09:22.879Z,11.94
2022-10-02T18:12:12.786Z,11.90
2022-10-02T18:15:21.444Z,11.86
2022-10-02T18:18:07.743Z,11.82
2022-10-02T18:20:49.630Z,11.80
2022-10-02T18:23:36.595Z,11.79
2022-10-02T18:26:20.009Z,11.76
2022-10-02T18:29:29.386Z,11.74
2022-10-02T18:32:11.507Z,11.70
2022-10-02T18:35:05.177Z,11.67
2022-10-02T18:37:50.876Z,11.64
2022-10-02T18:40:25.487Z,11.62
2022-10-02T18:43:20.622Z,11.61
2022-10-02T18:46:04.099Z,11.59
2022-10-02T18:48:53.570Z,11.59
2022-10-02T18:51:37.146Z,11.58
2022-10-02T18:54:24.231Z,11.58
2022-10-02T18:57:04.931Z,11.58
2022-10-02T18:59:49.757Z,11.57
2022-10-02T19:02:32.981Z,11.58
2022-10-02T19:05:19.964Z,11.60
2022-10-02T19:07:56.710Z,11.62
2022-10-02T19:10:38.935Z,11.64
2022-10-02T19:13:17.973Z,11.66
2022-10-02T19:15:48.888Z,11.70
2022-10-02T19:18:19.208Z,11.73
2022-10-02T19:20:57.547Z,11.77
2022-10-02T19:23:32.712Z,11.80
2022-10-02T19:26:02.981Z,11.85
2022-10-02T19:28:36.967Z,11.88
2022-10-02T19:31:13.114Z,11.90
2022-10-02T19:33:50.604Z,11.93
2022-10-02T19:36:22.494Z,11.95
2022-10-02T19:38:55.602Z,11.96
2022-10-02T19:41:27.400Z,11.94
2022-10-02T19:44:02.874Z,11.95
2022-10-02T19:46:39.867Z,11.95
2022-10-02T19:49:17.279Z,11.94
2022-10-02T19:51:47.523Z,11.93
2022-10-02T19:54:20.739Z,11.91
2022-10-02T19:57:01.790Z,11.91
2022-10-02T19:59:44.958Z,11.90
2022-10-02T20:02:21.741Z,11.90
2022-10-02T20:04:52.442Z,11.89
2022-10-02T20:07:23.079Z,11.87
2022-10-02T20:10:02.003Z,11.85
2022-10-02T20:12:36.895Z,11.83
2022-10-02T20:15:12.488Z,11.81
2022-10-02T20:17:43.480Z,11.80
2022-10-02T20:20:16.009Z,11.79
2022-10-02T20:22:49.488Z,11.77
2022-10-02T20:25:21.691Z,11.74
2022-10-02T20:27:59.661Z,11.72
2022-10-02T20:30:37.511Z,11.69
2022-10-02T20:33:12.798Z,11.66
2022-10-02T20:35:49.098Z,11.64
2022-10-02T20:38:25.612Z,11.62
2022-10-02T20:40:56.782Z,11.59
2022-10-02T20:43:32.041Z,11.56
2022-10-02T20:46:19.806Z,11.54
2022-10-02T20:49:33.419Z,11.52
2022-10-02T20:52:39.769Z,11.51
2022-10-02T20:55:17.470Z,11.51
2022-10-02T20:58:16.711Z,11.50
2022-10-02T21:01:03.479Z,11.49
2022-10-02T21:06:48.695Z,11.48
2022-10-02T21:09:45.134Z,11.48
2022-10-02T21:12:47.862Z,11.49
2022-10-02T21:15:50.723Z,11.48
2022-10-02T21:18:47.319Z,11.48
2022-10-02T21:21:36.200Z,11.48
2022-10-02T21:24:35.000Z,11.47
2022-10-02T21:27:40.633Z,11.45
2022-10-02T21:30:14.670Z,11.43
2022-10-02T21:33:02.747Z,11.42
2022-10-02T21:35:51.711Z,11.40
2022-10-02T21:38:49.738Z,11.39
2022-10-02T21:42:00.973Z,11.35
2022-10-02T21:45:16.276Z,11.31
2022-10-02T21:48:12.557Z,11.24
2022-10-02T21:51:10.003Z,11.19
2022-10-02T21:54:18.305Z,11.14
2022-10-02T21:57:12.702Z,11.09
2022-10-02T22:00:13.433Z,11.02
2022-10-02T22:03:17.657Z,10.95
2022-10-02T22:06:06.119Z,10.90
2022-10-02T22:08:42.123Z,10.85
2022-10-02T22:11:21.507Z,10.80
2022-10-02T22:13:52.795Z,10.75
2022-10-02T22:16:35.584Z,10.71
2022-10-02T22:19:17.724Z,10.68
2022-10-02T22:22:07.646Z,10.65
2022-10-02T22:24:54.663Z,10.61
2022-10-02T22:27:44.931Z,10.59
2022-10-02T22:30:24.143Z,10.57
2022-10-02T22:33:11.004Z,10.56
2022-10-02T22:36:00.971Z,10.55
2022-10-02T22:38:34.049Z,10.53
2022-10-02T22:41:07.680Z,10.52
2022-10-02T22:43:45.357Z,10.51
2022-10-02T22:46:27.832Z,10.51
2022-10-02T22:49:02.471Z,10.49
2022-10-02T22:51:40.157Z,10.49
2022-10-02T22:54:28.903Z,10.49
2022-10-02T22:57:10.613Z,10.47
2022-10-02T22:59:45.682Z,10.46
2022-10-02T23:02:20.787Z,10.44
2022-10-02T23:04:57.840Z,10.43
2022-10-02T23:07:34.763Z,10.42
2022-10-02T23:10:14.428Z,10.40
2022-10-02T23:12:51.460Z,10.38
2022-10-02T23:15:39.272Z,10.37
2022-10-02T23:18:18.706Z,10.36
2022-10-02T23:20:55.144Z,10.37
2022-10-02T23:23:28.417Z,10.38
2022-10-02T23:26:04.614Z,10.38
2022-10-02T23:28:38.551Z,10.38
2022-10-02T23:31:20.152Z,10.39
2022-10-02T23:34:02.260Z,10.40
2022-10-02T23:36:44.244Z,10.40
2022-10-02T23:39:20.069Z,10.40
2022-10-02T23:41:52.254Z,10.40
2022-10-02T23:44:37.687Z,10.41
2022-10-02T23:47:10.680Z,10.41
2022-10-02T23:49:43.428Z,10.41
2022-10-02T23:52:48.518Z,10.40
2022-10-02T23:55:32.845Z,10.38
2022-10-02T23:58:14.774Z,10.37
